createdAt,value
2018-07-27T00:02:10.326Z,25.55
2018-07-27T00:04:39.044Z,25.47
2018-07-27T00:07:07.372Z,25.38
2018-07-27T00:09:35.689Z,25.28
2018-07-27T00:12:04.060Z,25.22
2018-07-27T00:14:32.445Z,25.14
2018-07-27T00:17:00.760Z,25.07
2018-07-27T00:19:29.104Z,25.00
2018-07-27T00:21:57.400Z,24.95
2018-07-27T00:24:25.735Z,24.90
2018-07-27T00:26:54.074Z,24.87
2018-07-27T00:29:22.415Z,24.82
2018-07-27T00:31:50.865Z,24.74
2018-07-27T00:34:19.206Z,24.68
2018-07-27T00:36:47.582Z,24.65
2018-07-27T00:39:15.918Z,24.62
2018-07-27T00:41:44.250Z,24.58
2018-07-27T00:44:12.689Z,24.53
2018-07-27T00:46:41.020Z,24.50
2018-07-27T00:49:09.367Z,24.48
2018-07-27T00:51:37.800Z,24.43
2018-07-27T00:54:06.158Z,24.41
2018-07-27T00:56:34.695Z,24.42
2018-07-27T00:59:03.032Z,24.41
2018-07-27T01:01:31.417Z,24.42
2018-07-27T01:03:59.744Z,24.44
2018-07-27T01:06:28.099Z,24.45
2018-07-27T01:08:56.384Z,24.44
2018-07-27T01:11:24.725Z,24.43
2018-07-27T01:13:53.101Z,24.41
2018-07-27T01:16:21.442Z,24.41
2018-07-27T01:18:49.800Z,24.36
2018-07-27T01:21:19.055Z,24.32
2018-07-27T01:23:47.337Z,24.32
2018-07-27T01:26:15.671Z,24.27
2018-07-27T01:28:44.038Z,24.26
2018-07-27T01:31:12.351Z,24.23
2018-07-27T01:33:40.749Z,24.23
2018-07-27T01:36:09.074Z,24.25
2018-07-27T01:38:37.411Z,24.26
2018-07-27T01:41:05.746Z,24.24
2018-07-27T01:43:34.308Z,24.19
2018-07-27T01:46:02.606Z,24.16
2018-07-27T01:48:31.473Z,24.17
2018-07-27T01:50:59.827Z,24.21
2018-07-27T01:53:28.155Z,24.22
2018-07-27T01:55:56.533Z,24.20
2018-07-27T01:58:24.895Z,24.17
2018-07-27T02:00:53.192Z,24.08
2018-07-27T02:03:21.553Z,24.00
2018-07-27T02:05:49.965Z,23.97
2018-07-27T02:08:18.290Z,23.93
2018-07-27T02:10:46.610Z,23.84
2018-07-27T02:13:14.980Z,23.83
2018-07-27T02:15:43.427Z,23.83
2018-07-27T02:18:11.750Z,23.83
2018-07-27T02:20:40.132Z,23.84
2018-07-27T02:23:08.448Z,23.86
2018-07-27T02:25:36.804Z,23.90
2018-07-27T02:28:05.117Z,23.92
2018-07-27T02:30:33.696Z,23.92
2018-07-27T02:33:02.047Z,23.86
2018-07-27T02:35:30.394Z,23.76
2018-07-27T02:37:58.779Z,23.72
2018-07-27T02:40:27.116Z,23.67
2018-07-27T02:42:55.440Z,23.56
2018-07-27T02:45:23.869Z,23.46
2018-07-27T02:47:52.193Z,23.44
2018-07-27T02:50:21.027Z,23.47
2018-07-27T02:52:49.518Z,23.53
2018-07-27T02:55:18.063Z,23.54
2018-07-27T02:57:46.423Z,23.51
2018-07-27T03:00:14.860Z,23.45
2018-07-27T03:02:43.180Z,23.39
2018-07-27T03:05:11.474Z,23.35
2018-07-27T03:07:39.789Z,23.29
2018-07-27T03:10:08.153Z,23.23
2018-07-27T03:12:36.443Z,23.20
2018-07-27T03:15:05.418Z,23.17
2018-07-27T03:17:33.744Z,23.17
2018-07-27T03:20:02.076Z,23.19
2018-07-27T03:22:30.413Z,23.20
2018-07-27T03:24:58.761Z,23.20
2018-07-27T03:27:27.121Z,23.21
2018-07-27T03:29:55.427Z,23.16
2018-07-27T03:32:23.846Z,23.15
2018-07-27T03:34:52.174Z,23.13
2018-07-27T03:37:20.511Z,23.10
2018-07-27T03:39:48.840Z,23.07
2018-07-27T03:42:17.181Z,23.06
2018-07-27T03:44:45.501Z,23.06
2018-07-27T03:47:13.853Z,23.09
2018-07-27T03:49:42.122Z,23.12
2018-07-27T03:52:10.498Z,23.16
2018-07-27T03:54:38.802Z,23.20
2018-07-27T03:57:07.134Z,23.23
2018-07-27T03:59:35.562Z,23.23
2018-07-27T04:02:03.938Z,23.21
2018-07-27T04:04:32.254Z,23.18
2018-07-27T04:07:01.456Z,23.21
2018-07-27T04:09:29.775Z,23.22
2018-07-27T04:11:58.096Z,23.21
2018-07-27T04:14:26.428Z,23.22
2018-07-27T04:16:54.773Z,23.25
2018-07-27T04:19:23.116Z,23.29
2018-07-27T04:21:51.443Z,23.34
2018-07-27T04:24:19.789Z,23.42
2018-07-27T04:26:48.123Z,23.63
2018-07-27T04:29:16.536Z,24.10
2018-07-27T04:31:44.868Z,24.79
2018-07-27T04:34:13.415Z,25.57
2018-07-27T04:36:41.749Z,26.33
2018-07-27T04:39:11.017Z,27.01
2018-07-27T04:41:39.334Z,27.70
2018-07-27T04:44:07.896Z,28.25
2018-07-27T04:46:36.341Z,28.65
2018-07-27T04:49:04.715Z,28.76
2018-07-27T04:51:33.176Z,28.91
2018-07-27T04:54:01.701Z,29.26
2018-07-27T04:56:30.026Z,29.53
2018-07-27T04:58:58.401Z,29.86
2018-07-27T05:01:26.943Z,30.24
2018-07-27T05:03:55.299Z,30.60
2018-07-27T05:06:23.670Z,30.75
2018-07-27T05:08:57.235Z,30.86
2018-07-27T05:11:25.585Z,31.00
2018-07-27T05:13:53.865Z,31.25
2018-07-27T05:16:22.188Z,31.36
2018-07-27T05:18:50.574Z,31.66
2018-07-27T05:21:18.887Z,32.11
2018-07-27T05:23:47.236Z,32.49
2018-07-27T05:26:15.626Z,32.52
2018-07-27T05:28:43.972Z,32.74
2018-07-27T05:31:12.348Z,32.88
2018-07-27T05:33:40.664Z,33.26
2018-07-27T05:36:09.103Z,33.65
2018-07-27T05:38:37.433Z,33.65
2018-07-27T05:41:06.090Z,33.82
2018-07-27T05:43:34.574Z,33.80
2018-07-27T05:46:02.931Z,33.44
2018-07-27T05:48:31.421Z,33.04
2018-07-27T05:50:59.760Z,32.99
2018-07-27T05:53:28.113Z,33.06
2018-07-27T05:55:56.469Z,32.57
2018-07-27T05:58:24.934Z,32.56
2018-07-27T06:00:53.301Z,32.33
2018-07-27T06:03:21.647Z,31.77
2018-07-27T06:05:50.167Z,31.16
2018-07-27T06:08:18.508Z,30.95
2018-07-27T06:10:46.891Z,30.65
2018-07-27T06:13:15.313Z,30.45
2018-07-27T06:15:43.621Z,30.18
2018-07-27T06:18:12.028Z,29.88
2018-07-27T06:20:40.274Z,29.77
2018-07-27T06:23:08.624Z,29.69
2018-07-27T06:25:37.064Z,29.61
2018-07-27T06:28:05.519Z,29.54
2018-07-27T06:30:33.905Z,29.45
2018-07-27T06:33:02.313Z,29.38
2018-07-27T06:35:30.682Z,29.40
2018-07-27T06:37:59.069Z,29.36
2018-07-27T06:40:27.428Z,29.28
2018-07-27T06:42:55.836Z,29.25
2018-07-27T06:45:24.327Z,29.20
2018-07-27T06:47:52.725Z,29.16
2018-07-27T06:50:21.207Z,29.12
2018-07-27T06:52:49.559Z,29.06
2018-07-27T06:55:17.894Z,29.08
2018-07-27T06:57:46.233Z,29.11
2018-07-27T07:00:14.576Z,29.09
2018-07-27T07:02:42.907Z,29.11
2018-07-27T07:05:11.292Z,29.09
2018-07-27T07:07:39.627Z,29.15
2018-07-27T07:10:08.069Z,29.21
2018-07-27T07:12:36.462Z,29.15
2018-07-27T07:15:06.328Z,29.20
2018-07-27T07:17:34.655Z,29.31
2018-07-27T07:20:03.017Z,29.42
2018-07-27T07:22:31.323Z,29.42
2018-07-27T07:24:59.910Z,29.41
2018-07-27T07:27:28.205Z,29.41
2018-07-27T07:29:56.505Z,29.41
2018-07-27T07:32:24.869Z,29.41
2018-07-27T07:34:53.219Z,29.47
2018-07-27T07:37:21.650Z,29.43
2018-07-27T07:39:50.439Z,29.38
2018-07-27T07:42:18.823Z,29.48
2018-07-27T07:44:47.180Z,29.61
2018-07-27T07:47:15.509Z,29.73
2018-07-27T07:49:43.813Z,29.74
2018-07-27T07:52:12.178Z,29.78
2018-07-27T07:54:40.537Z,29.84
2018-07-27T07:57:08.854Z,29.96
2018-07-27T07:59:37.156Z,29.98
2018-07-27T08:02:05.534Z,29.95
2018-07-27T08:04:33.903Z,29.95
2018-07-27T08:07:02.242Z,29.97
2018-07-27T08:09:30.629Z,30.02
2018-07-27T08:11:59.147Z,30.09
2018-07-27T08:14:27.428Z,30.14
2018-07-27T08:16:55.733Z,30.22
2018-07-27T08:19:24.159Z,30.31
2018-07-27T08:21:52.470Z,30.39
2018-07-27T08:24:20.791Z,30.49
2018-07-27T08:26:52.148Z,30.62
2018-07-27T08:29:23.660Z,30.71
2018-07-27T08:31:52.718Z,30.67
2018-07-27T08:34:21.317Z,30.74
2018-07-27T08:36:50.120Z,30.84
2018-07-27T08:39:20.655Z,30.91
2018-07-27T08:41:49.315Z,30.96
2018-07-27T08:44:20.917Z,31.02
2018-07-27T08:46:49.280Z,31.00
2018-07-27T08:49:17.602Z,31.09
2018-07-27T08:51:45.964Z,31.14
2018-07-27T08:54:14.321Z,31.21
2018-07-27T08:56:42.674Z,31.32
2018-07-27T08:59:10.988Z,31.37
2018-07-27T09:01:39.377Z,31.34
2018-07-27T09:04:07.722Z,31.36
2018-07-27T09:06:36.072Z,31.39
2018-07-27T09:09:07.334Z,31.38
2018-07-27T09:11:35.703Z,31.38
2018-07-27T09:14:04.002Z,31.38
2018-07-27T09:16:32.465Z,31.37
2018-07-27T09:19:00.788Z,31.42
2018-07-27T09:21:29.156Z,31.53
2018-07-27T09:23:57.509Z,31.61
2018-07-27T09:26:25.856Z,31.65
2018-07-27T09:28:54.194Z,31.77
2018-07-27T09:31:22.520Z,31.73
2018-07-27T09:33:50.834Z,31.68
2018-07-27T09:36:19.183Z,31.70
2018-07-27T09:38:47.487Z,31.75
2018-07-27T09:41:15.834Z,31.85
2018-07-27T09:43:44.165Z,31.90
2018-07-27T09:46:12.506Z,31.94
2018-07-27T09:48:40.864Z,32.04
2018-07-27T09:51:09.159Z,32.13
2018-07-27T09:53:37.445Z,32.24
2018-07-27T09:56:05.819Z,32.31
2018-07-27T09:58:34.163Z,32.27
2018-07-27T10:01:12.632Z,32.21
2018-07-27T10:03:40.973Z,32.25
2018-07-27T10:06:09.297Z,32.21
2018-07-27T10:08:37.812Z,32.26
2018-07-27T10:11:06.104Z,32.29
2018-07-27T10:13:34.438Z,32.28
2018-07-27T10:16:02.751Z,32.31
2018-07-27T10:18:31.143Z,32.34
2018-07-27T10:20:59.406Z,32.35
2018-07-27T10:23:27.747Z,32.41
2018-07-27T10:25:56.084Z,32.44
2018-07-27T10:28:24.416Z,32.48
2018-07-27T10:30:52.743Z,32.55
2018-07-27T10:33:21.042Z,32.65
2018-07-27T10:35:49.361Z,32.75
2018-07-27T10:38:17.954Z,32.75
2018-07-27T10:40:46.304Z,32.69
2018-07-27T10:43:14.618Z,32.68
2018-07-27T10:45:42.921Z,32.60
2018-07-27T10:48:11.254Z,32.59
2018-07-27T10:50:39.570Z,32.61
2018-07-27T10:53:08.009Z,32.60
2018-07-27T10:55:36.379Z,32.64
2018-07-27T10:58:04.720Z,32.76
2018-07-27T11:00:33.046Z,32.86
2018-07-27T11:03:01.421Z,32.92
2018-07-27T11:05:29.760Z,32.85
2018-07-27T11:07:58.077Z,32.89
2018-07-27T11:10:26.396Z,32.85
2018-07-27T11:12:54.826Z,32.84
2018-07-27T11:15:23.159Z,32.83
2018-07-27T11:17:51.595Z,32.84
2018-07-27T11:20:19.833Z,32.82
2018-07-27T11:22:48.158Z,32.81
2018-07-27T11:25:16.460Z,32.88
2018-07-27T11:27:44.772Z,32.97
2018-07-27T11:30:13.111Z,33.02
2018-07-27T11:32:41.416Z,33.05
2018-07-27T11:35:09.717Z,33.09
2018-07-27T11:37:38.084Z,33.08
2018-07-27T11:40:07.060Z,33.10
2018-07-27T11:42:35.425Z,33.11
2018-07-27T11:45:03.856Z,33.15
2018-07-27T11:47:32.186Z,33.14
2018-07-27T11:50:00.549Z,33.15
2018-07-27T11:52:29.136Z,33.14
2018-07-27T11:54:58.452Z,33.17
2018-07-27T11:57:26.808Z,33.13
2018-07-27T11:59:55.137Z,33.17
2018-07-27T12:02:23.459Z,33.23
2018-07-27T12:04:51.798Z,33.23
2018-07-27T12:07:20.091Z,33.29
2018-07-27T12:09:48.434Z,33.33
2018-07-27T12:12:16.856Z,33.29
2018-07-27T12:14:45.338Z,33.22
2018-07-27T12:17:13.488Z,33.29
2018-07-27T12:19:41.797Z,33.29
2018-07-27T12:22:10.153Z,33.31
2018-07-27T12:24:38.891Z,33.37
2018-07-27T12:27:07.378Z,33.42
2018-07-27T12:29:35.782Z,33.49
2018-07-27T12:32:04.135Z,33.50
2018-07-27T12:34:32.458Z,33.54
2018-07-27T12:37:00.801Z,33.51
2018-07-27T12:39:29.146Z,33.52
2018-07-27T12:41:57.472Z,33.57
2018-07-27T12:44:25.795Z,33.64
2018-07-27T12:46:54.177Z,33.69
2018-07-27T12:49:22.505Z,33.76
2018-07-27T12:51:50.876Z,33.76
2018-07-27T12:54:19.193Z,33.66
2018-07-27T12:56:47.530Z,33.63
2018-07-27T12:59:15.818Z,33.59
2018-07-27T13:01:44.130Z,33.50
2018-07-27T13:04:12.441Z,33.50
2018-07-27T13:06:40.885Z,33.60
2018-07-27T13:09:10.991Z,33.69
2018-07-27T13:11:39.299Z,33.75
2018-07-27T13:14:07.850Z,33.74
2018-07-27T13:16:36.161Z,33.75
2018-07-27T13:19:04.636Z,33.74
2018-07-27T13:21:33.068Z,33.71
2018-07-27T13:24:02.595Z,33.68
2018-07-27T13:26:31.046Z,33.73
2018-07-27T13:28:59.614Z,33.78
2018-07-27T13:31:50.889Z,33.72
2018-07-27T13:37:05.308Z,33.80
2018-07-27T13:39:34.384Z,33.83
2018-07-27T13:42:03.821Z,33.78
2018-07-27T13:44:33.326Z,33.71
2018-07-27T13:47:02.140Z,33.73
2018-07-27T13:49:30.464Z,33.77
2018-07-27T13:51:59.080Z,33.86
2018-07-27T13:54:28.356Z,33.95
2018-07-27T13:56:56.660Z,33.95
2018-07-27T13:59:24.960Z,33.92
2018-07-27T14:01:53.280Z,33.88
2018-07-27T14:04:21.621Z,33.89
2018-07-27T14:06:51.413Z,33.92
2018-07-27T14:09:19.768Z,33.97
2018-07-27T14:11:48.134Z,33.93
2018-07-27T14:14:16.502Z,33.88
2018-07-27T14:16:44.830Z,33.97
2018-07-27T14:19:14.007Z,34.01
2018-07-27T14:21:42.725Z,34.02
2018-07-27T14:24:10.979Z,34.07
2018-07-27T14:26:39.500Z,34.03
2018-07-27T14:29:08.040Z,34.06
2018-07-27T14:31:36.350Z,34.10
2018-07-27T14:34:04.698Z,34.05
2018-07-27T14:36:33.013Z,34.04
2018-07-27T14:39:01.332Z,34.10
2018-07-27T14:41:29.708Z,34.12
2018-07-27T14:43:58.006Z,34.12
2018-07-27T14:46:26.421Z,34.16
2018-07-27T14:48:54.715Z,34.08
2018-07-27T14:51:23.038Z,34.00
2018-07-27T14:53:51.368Z,33.91
2018-07-27T14:56:19.724Z,33.95
2018-07-27T14:58:48.073Z,33.96
2018-07-27T15:01:16.411Z,33.93
2018-07-27T15:03:44.720Z,33.96
2018-07-27T15:06:13.018Z,33.99
2018-07-27T15:08:41.373Z,34.12
2018-07-27T15:11:09.851Z,34.13
2018-07-27T15:13:38.179Z,34.14
2018-07-27T15:16:06.594Z,34.10
2018-07-27T15:18:34.915Z,34.06
2018-07-27T15:21:03.240Z,34.05
2018-07-27T15:23:31.560Z,34.04
2018-07-27T15:25:59.872Z,34.05
2018-07-27T15:28:28.196Z,34.00
2018-07-27T15:30:56.622Z,33.98
2018-07-27T15:33:24.944Z,33.97
2018-07-27T15:35:53.534Z,34.00
2018-07-27T15:38:21.840Z,34.10
2018-07-27T15:40:50.135Z,34.15
2018-07-27T15:43:18.786Z,34.06
2018-07-27T15:45:47.127Z,34.03
2018-07-27T15:48:15.488Z,34.02
2018-07-27T15:50:43.843Z,34.00
2018-07-27T15:53:12.156Z,33.97
2018-07-27T15:55:40.628Z,33.97
2018-07-27T15:58:08.972Z,33.97
2018-07-27T16:00:37.304Z,33.97
2018-07-27T16:03:05.696Z,34.00
2018-07-27T16:05:34.117Z,34.02
2018-07-27T16:08:02.459Z,34.05
2018-07-27T16:10:31.116Z,34.07
2018-07-27T16:12:59.880Z,34.05
2018-07-27T16:15:28.193Z,34.04
2018-07-27T16:17:56.880Z,34.00
2018-07-27T16:20:25.282Z,33.97
2018-07-27T16:22:53.621Z,33.96
2018-07-27T16:25:22.237Z,33.99
2018-07-27T16:27:50.574Z,34.01
2018-07-27T16:30:18.932Z,34.02
2018-07-27T16:32:47.249Z,33.96
2018-07-27T16:35:15.574Z,33.90
2018-07-27T16:37:43.921Z,33.88
2018-07-27T16:40:12.253Z,33.86
2018-07-27T16:42:40.585Z,33.85
2018-07-27T16:45:08.925Z,33.87
2018-07-27T16:47:37.266Z,33.85
2018-07-27T16:50:06.254Z,33.88
2018-07-27T16:52:34.567Z,33.88
2018-07-27T16:55:02.907Z,33.87
2018-07-27T16:57:31.248Z,33.84
2018-07-27T16:59:59.715Z,33.81
2018-07-27T17:02:28.033Z,33.75
2018-07-27T17:04:56.365Z,33.75
2018-07-27T17:07:24.662Z,33.78
2018-07-27T17:09:53.122Z,33.79
2018-07-27T17:12:21.434Z,33.76
2018-07-27T17:14:49.770Z,33.70
2018-07-27T17:17:18.078Z,33.66
2018-07-27T17:19:46.489Z,33.64
2018-07-27T17:22:14.796Z,33.59
2018-07-27T17:24:43.100Z,33.59
2018-07-27T17:27:11.424Z,33.58
2018-07-27T17:29:39.748Z,33.56
2018-07-27T17:32:08.269Z,33.54
2018-07-27T17:34:36.654Z,33.54
2018-07-27T17:37:05.100Z,33.51
2018-07-27T17:39:33.412Z,33.47
2018-07-27T17:42:01.756Z,33.39
2018-07-27T17:44:30.088Z,33.34
2018-07-27T17:46:58.402Z,33.30
2018-07-27T17:49:26.720Z,33.27
2018-07-27T17:51:55.058Z,33.22
2018-07-27T17:54:23.443Z,33.13
2018-07-27T17:56:51.726Z,33.11
2018-07-27T17:59:20.011Z,33.04
2018-07-27T18:01:48.424Z,32.98
2018-07-27T18:04:16.733Z,32.96
2018-07-27T18:06:45.162Z,32.91
2018-07-27T18:09:13.575Z,32.89
2018-07-27T18:11:41.913Z,32.84
2018-07-27T18:14:10.576Z,32.81
2018-07-27T18:16:39.032Z,32.77
2018-07-27T18:19:07.982Z,32.70
2018-07-27T18:21:36.857Z,32.62
2018-07-27T18:24:05.250Z,32.54
2018-07-27T18:26:33.775Z,32.44
2018-07-27T18:29:02.115Z,32.37
2018-07-27T18:31:30.458Z,32.28
2018-07-27T18:33:58.753Z,32.22
2018-07-27T18:36:27.227Z,32.19
2018-07-27T18:38:55.618Z,32.14
2018-07-27T18:41:23.994Z,32.11
2018-07-27T18:43:52.547Z,32.05
2018-07-27T18:46:21.178Z,32.01
2018-07-27T18:48:49.961Z,31.95
2018-07-27T18:51:18.274Z,31.88
2018-07-27T18:53:46.643Z,31.84
2018-07-27T18:56:15.159Z,31.80
2018-07-27T18:58:43.480Z,31.73
2018-07-27T19:01:11.856Z,31.65
2018-07-27T19:03:40.207Z,31.57
2018-07-27T19:06:08.582Z,31.50
2018-07-27T19:08:37.030Z,31.45
2018-07-27T19:11:05.845Z,31.37
2018-07-27T19:13:34.231Z,31.32
2018-07-27T19:16:02.590Z,31.28
2018-07-27T19:18:30.927Z,31.20
2018-07-27T19:20:59.297Z,31.18
2018-07-27T19:23:27.709Z,31.13
2018-07-27T19:25:55.957Z,31.09
2018-07-27T19:28:24.386Z,31.06
2018-07-27T19:30:52.759Z,31.01
2018-07-27T19:33:21.072Z,30.95
2018-07-27T19:35:49.431Z,30.89
2018-07-27T19:38:17.743Z,30.84
2018-07-27T19:40:46.080Z,30.77
2018-07-27T19:43:14.425Z,30.71
2018-07-27T19:45:43.137Z,30.66
2018-07-27T19:48:11.485Z,30.63
2018-07-27T19:50:39.802Z,30.59
2018-07-27T19:53:08.147Z,30.54
2018-07-27T19:55:36.472Z,30.48
2018-07-27T19:58:04.800Z,30.41
2018-07-27T20:00:33.154Z,30.35
2018-07-27T20:03:01.473Z,30.30
2018-07-27T20:05:29.824Z,30.22
2018-07-27T20:07:58.130Z,30.16
2018-07-27T20:10:26.518Z,30.10
2018-07-27T20:12:54.866Z,30.06
2018-07-27T20:15:23.191Z,30.02
2018-07-27T20:17:51.507Z,29.95
2018-07-27T20:20:19.822Z,29.88
2018-07-27T20:22:48.183Z,29.85
2018-07-27T20:25:16.488Z,29.78
2018-07-27T20:27:44.808Z,29.73
2018-07-27T20:30:13.153Z,29.69
2018-07-27T20:32:41.574Z,29.66
2018-07-27T20:35:09.931Z,29.61
2018-07-27T20:37:38.284Z,29.56
2018-07-27T20:40:07.427Z,29.52
2018-07-27T20:42:36.016Z,29.49
2018-07-27T20:45:05.354Z,29.44
2018-07-27T20:47:33.705Z,29.40
2018-07-27T20:50:02.049Z,29.34
2018-07-27T20:52:30.387Z,29.31
2018-07-27T20:54:58.746Z,29.26
2018-07-27T20:57:27.084Z,29.21
2018-07-27T20:59:55.587Z,29.17
2018-07-27T21:02:23.949Z,29.13
2018-07-27T21:04:52.374Z,29.09
2018-07-27T21:07:20.743Z,29.05
2018-07-27T21:09:49.070Z,29.02
2018-07-27T21:12:17.480Z,28.99
2018-07-27T21:14:45.855Z,28.96
2018-07-27T21:17:14.336Z,28.91
2018-07-27T21:19:42.680Z,28.87
2018-07-27T21:22:11.059Z,28.82
2018-07-27T21:24:39.398Z,28.77
2018-07-27T21:27:07.720Z,28.67
2018-07-27T21:29:36.101Z,28.61
2018-07-27T21:32:04.451Z,28.58
2018-07-27T21:34:32.868Z,28.53
2018-07-27T21:37:01.190Z,28.46
2018-07-27T21:39:29.523Z,28.37
2018-07-27T21:41:57.904Z,28.28
2018-07-27T21:44:26.359Z,28.21
2018-07-27T21:46:54.747Z,28.18
2018-07-27T21:49:23.068Z,28.12
2018-07-27T21:51:51.428Z,28.08
2018-07-27T21:54:19.787Z,28.08
2018-07-27T21:56:48.156Z,28.08
2018-07-27T21:59:16.520Z,28.09
2018-07-27T22:01:44.963Z,28.05
2018-07-27T22:04:13.332Z,28.02
2018-07-27T22:06:41.706Z,27.95
2018-07-27T22:09:10.709Z,27.88
2018-07-27T22:11:39.085Z,27.78
2018-07-27T22:14:07.389Z,27.72
2018-07-27T22:16:35.833Z,27.67
2018-07-27T22:19:04.242Z,27.64
2018-07-27T22:21:32.805Z,27.63
2018-07-27T22:24:01.273Z,27.64
2018-07-27T22:26:29.587Z,27.62
2018-07-27T22:28:57.927Z,27.61
2018-07-27T22:31:26.301Z,27.61
2018-07-27T22:33:54.612Z,27.59
2018-07-27T22:36:22.951Z,27.60
2018-07-27T22:38:51.474Z,27.59
2018-07-27T22:41:19.807Z,27.58
2018-07-27T22:43:48.313Z,27.53
2018-07-27T22:46:16.796Z,27.48
2018-07-27T22:48:45.280Z,27.39
2018-07-27T22:51:13.644Z,27.30
2018-07-27T22:53:41.956Z,27.21
2018-07-27T22:56:10.302Z,27.12
2018-07-27T22:58:38.778Z,27.04
2018-07-27T23:01:07.100Z,27.01
2018-07-27T23:03:35.436Z,26.94
2018-07-27T23:06:03.778Z,26.85
2018-07-27T23:08:32.145Z,26.81
2018-07-27T23:11:00.506Z,26.78
2018-07-27T23:13:29.274Z,26.72
2018-07-27T23:15:58.186Z,26.67
2018-07-27T23:18:26.932Z,26.67
2018-07-27T23:20:55.259Z,26.69
2018-07-27T23:23:23.600Z,26.68
2018-07-27T23:25:52.052Z,26.64
2018-07-27T23:28:20.430Z,26.57
2018-07-27T23:30:53.445Z,26.54
2018-07-27T23:33:21.776Z,26.49
2018-07-27T23:35:50.481Z,26.42
2018-07-27T23:38:18.815Z,26.33
2018-07-27T23:40:47.390Z,26.28
2018-07-27T23:43:15.675Z,26.22
2018-07-27T23:45:44.001Z,26.19
2018-07-27T23:48:12.355Z,26.12
2018-07-27T23:50:41.078Z,26.07
2018-07-27T23:53:09.455Z,26.04
2018-07-27T23:55:37.791Z,25.99
2018-07-27T23:58:06.084Z,25.94
